Time;durP1;ratioP1;P1;durP2;ratioP2;P2;SDS_P1;SDS_P2;PMS_P1;PMS_P2;Temp;Humidity;BMP_temperature;BMP_pressure;BME280_temperature;BME280_humidity;BME280_pressure;Samples;Min_cycle;Max_cycle;Signal;HPM_P1;HPM_P2
2023/03/19 00:01:59;;;;;;;11.48;8.07;;;12.40;89.70;;;;;;5102447;28;20036;-70
2023/03/19 00:04:26;;;;;;;12.10;8.60;;;12.40;89.70;;;;;;5091022;28;20400;-68
2023/03/19 00:06:52;;;;;;;13.65;8.95;;;12.40;89.50;;;;;;5095487;28;20023;-69
2023/03/19 00:09:19;;;;;;;11.40;8.30;;;12.40;89.30;;;;;;5091597;28;20034;-68
2023/03/19 00:11:45;;;;;;;12.77;8.40;;;12.30;89.00;;;;;;5091325;28;20024;-70
2023/03/19 00:14:11;;;;;;;10.07;7.82;;;12.30;89.00;;;;;;5101044;28;20030;-69
2023/03/19 00:16:37;;;;;;;14.05;8.13;;;12.30;88.90;;;;;;5095202;28;20039;-70
2023/03/19 00:19:02;;;;;;;13.90;8.88;;;12.30;88.90;;;;;;5100749;28;20098;-70
2023/03/19 00:21:29;;;;;;;12.68;8.93;;;12.30;88.80;;;;;;5090648;28;20063;-69
2023/03/19 00:23:59;;;;;;;14.70;9.10;;;12.20;88.70;;;;;;5110670;28;20020;-70
2023/03/19 00:26:27;;;;;;;12.90;8.75;;;12.20;88.70;;;;;;5105575;28;20532;-70
2023/03/19 00:28:53;;;;;;;11.82;8.30;;;12.20;88.60;;;;;;5099299;28;20392;-70
2023/03/19 00:31:18;;;;;;;10.88;8.15;;;12.20;88.60;;;;;;5098046;28;20032;-71
2023/03/19 00:33:44;;;;;;;13.55;8.38;;;12.10;88.40;;;;;;5103898;28;20077;-70
2023/03/19 00:36:10;;;;;;;13.00;8.88;;;12.10;88.40;;;;;;5089393;28;20044;-69
2023/03/19 00:38:36;;;;;;;13.00;9.15;;;12.10;88.40;;;;;;5092062;28;20028;-69
2023/03/19 00:41:04;;;;;;;15.60;10.10;;;12.00;88.50;;;;;;5089510;28;20039;-69
2023/03/19 00:43:30;;;;;;;13.23;9.45;;;12.00;88.40;;;;;;5096953;28;20034;-69
2023/03/19 00:45:56;;;;;;;15.82;9.80;;;11.90;88.40;;;;;;5096666;28;20074;-70
2023/03/19 00:48:22;;;;;;;11.80;9.05;;;11.90;88.40;;;;;;5059457;28;20036;-70
2023/03/19 00:50:48;;;;;;;14.40;10.18;;;11.90;88.50;;;;;;5088357;28;20035;-70
2023/03/19 00:53:14;;;;;;;12.30;8.95;;;11.90;88.50;;;;;;5088232;28;20388;-69
2023/03/19 00:55:40;;;;;;;14.45;9.57;;;11.90;88.60;;;;;;5087744;28;20046;-70
2023/03/19 00:58:06;;;;;;;14.30;10.32;;;11.80;88.60;;;;;;5092858;28;20044;-70
2023/03/19 01:00:32;;;;;;;14.45;9.48;;;11.80;88.70;;;;;;5104763;28;20459;-70
2023/03/19 01:02:59;;;;;;;14.02;9.63;;;11.80;88.70;;;;;;5090462;28;20515;-70
2023/03/19 01:05:25;;;;;;;19.02;9.68;;;11.70;88.60;;;;;;5084184;28;20024;-70
2023/03/19 01:07:50;;;;;;;12.32;9.10;;;11.70;88.50;;;;;;5076996;28;20035;-70
2023/03/19 01:10:21;;;;;;;15.27;9.98;;;11.70;88.40;;;;;;5081316;28;20024;-70
2023/03/19 01:12:47;;;;;;;13.77;10.05;;;11.70;88.50;;;;;;5083334;28;20089;-70
2023/03/19 01:15:13;;;;;;;14.45;10.02;;;11.70;88.40;;;;;;5081780;28;20106;-70
2023/03/19 01:17:38;;;;;;;14.93;9.68;;;11.60;88.40;;;;;;5106870;28;20040;-70
2023/03/19 01:20:11;;;;;;;14.93;10.43;;;11.60;88.30;;;;;;5097873;28;20157;-70
2023/03/19 01:22:39;;;;;;;14.13;10.10;;;11.60;88.30;;;;;;5085768;28;20020;-70
2023/03/19 01:25:06;;;;;;;14.75;10.20;;;11.60;88.30;;;;;;5089898;28;20107;-70
2023/03/19 01:27:32;;;;;;;14.23;9.95;;;11.60;88.20;;;;;;5090698;28;20028;-69
2023/03/19 01:29:57;;;;;;;15.45;9.63;;;11.60;88.10;;;;;;5088758;28;20530;-68
2023/03/19 01:32:23;;;;;;;12.98;9.93;;;11.50;88.10;;;;;;5101264;28;20043;-71
2023/03/19 01:34:49;;;;;;;14.02;10.02;;;11.50;87.90;;;;;;5088824;28;20032;-71
2023/03/19 01:37:14;;;;;;;15.32;10.68;;;11.50;87.90;;;;;;5093769;28;20028;-70
2023/03/19 01:39:40;;;;;;;15.30;9.95;;;11.50;87.90;;;;;;5091578;28;20423;-69
2023/03/19 01:42:06;;;;;;;12.63;9.80;;;11.50;87.90;;;;;;5107878;28;20467;-70
2023/03/19 01:44:35;;;;;;;15.38;10.68;;;11.40;87.90;;;;;;5090867;28;20387;-70
2023/03/19 01:47:05;;;;;;;16.25;11.07;;;11.40;87.90;;;;;;5090928;28;20059;-70
2023/03/19 01:49:31;;;;;;;17.13;11.10;;;11.40;87.90;;;;;;5092190;28;20027;-70
2023/03/19 01:52:00;;;;;;;15.82;10.30;;;11.30;87.90;;;;;;5089652;28;20028;-70
2023/03/19 01:54:27;;;;;;;14.90;10.15;;;11.30;87.90;;;;;;5094705;28;20043;-70
2023/03/19 01:57:04;;;;;;;13.70;10.27;;;11.30;88.00;;;;;;5099844;28;20070;-69
2023/03/19 01:59:35;;;;;;;18.38;11.30;;;11.30;88.00;;;;;;5089099;28;20083;-69
2023/03/19 02:02:10;;;;;;;13.07;9.85;;;11.20;88.00;;;;;;5084782;28;20391;-70
2023/03/19 02:04:39;;;;;;;13.90;9.73;;;11.20;88.00;;;;;;5092202;28;20133;-68
2023/03/19 02:07:06;;;;;;;14.77;10.13;;;11.20;88.00;;;;;;5099912;28;20032;-69
2023/03/19 02:09:32;;;;;;;18.08;10.95;;;11.20;88.10;;;;;;5089965;28;20387;-70
2023/03/19 02:12:00;;;;;;;17.50;9.40;;;11.10;88.00;;;;;;5086733;28;20059;-70
2023/03/19 02:14:26;;;;;;;13.57;10.35;;;11.10;88.10;;;;;;5089364;28;20028;-71
2023/03/19 02:16:53;;;;;;;15.90;10.20;;;11.10;88.10;;;;;;5088718;28;20089;-71
2023/03/19 02:20:00;;;;;;;13.27;9.38;;;11.10;88.10;;;;;;5088485;28;20077;-71
2023/03/19 02:22:28;;;;;;;14.02;9.48;;;11.00;88.10;;;;;;5087748;28;20067;-69
2023/03/19 02:25:29;;;;;;;16.42;11.40;;;11.00;88.10;;;;;;5094963;28;20024;-70
2023/03/19 02:27:56;;;;;;;14.57;10.32;;;11.00;88.10;;;;;;5096465;28;20032;-69
2023/03/19 02:30:27;;;;;;;14.02;9.73;;;11.00;88.10;;;;;;5089600;28;20024;-69
2023/03/19 02:32:52;;;;;;;13.07;10.43;;;11.00;88.20;;;;;;5094656;28;20024;-70
2023/03/19 02:35:18;;;;;;;13.32;9.38;;;11.00;88.30;;;;;;5105234;28;20035;-69
2023/03/19 02:37:44;;;;;;;10.95;9.25;;;10.90;88.30;;;;;;5089864;28;20562;-69
2023/03/19 02:40:23;;;;;;;13.77;10.43;;;10.90;88.40;;;;;;5086192;28;20565;-70
2023/03/19 02:42:49;;;;;;;12.15;9.52;;;10.90;88.50;;;;;;5085626;28;20084;-69
2023/03/19 02:45:14;;;;;;;15.98;10.23;;;10.90;88.50;;;;;;5105483;28;20067;-69
2023/03/19 02:47:40;;;;;;;15.88;10.27;;;10.90;88.50;;;;;;5099258;28;20147;-69
2023/03/19 02:50:07;;;;;;;15.85;9.70;;;10.90;88.60;;;;;;5098309;28;20035;-68
2023/03/19 02:52:33;;;;;;;13.10;9.13;;;10.90;88.60;;;;;;5091022;28;20036;-69
2023/03/19 02:54:59;;;;;;;13.13;9.75;;;10.90;88.50;;;;;;5103320;28;20543;-69
2023/03/19 02:57:24;;;;;;;12.93;9.48;;;10.90;88.50;;;;;;5095663;28;20494;-70
2023/03/19 02:59:50;;;;;;;13.60;10.00;;;10.80;88.40;;;;;;5098446;28;20032;-69
2023/03/19 03:02:16;;;;;;;16.60;10.55;;;10.80;88.50;;;;;;5099060;28;20480;-69
2023/03/19 03:04:42;;;;;;;16.35;9.82;;;10.80;88.50;;;;;;5105086;28;20024;-69
2023/03/19 03:07:08;;;;;;;14.35;9.85;;;10.80;88.50;;;;;;5099340;28;20027;-69
2023/03/19 03:09:34;;;;;;;14.30;10.20;;;10.80;88.50;;;;;;5098378;28;20058;-69
2023/03/19 03:12:00;;;;;;;14.45;10.05;;;10.80;88.50;;;;;;5103000;28;20027;-69
2023/03/19 03:14:25;;;;;;;16.63;9.60;;;10.80;88.60;;;;;;5094783;27;20460;-70
2023/03/19 03:16:51;;;;;;;13.00;9.35;;;10.90;88.60;;;;;;5096769;28;20032;-70
2023/03/19 03:19:17;;;;;;;13.95;10.02;;;10.90;88.60;;;;;;5093723;28;20051;-70
2023/03/19 03:21:42;;;;;;;13.48;9.45;;;10.90;88.60;;;;;;5080643;28;20024;-69
2023/03/19 03:24:09;;;;;;;13.75;9.07;;;10.80;88.40;;;;;;5096047;28;20103;-70
2023/03/19 03:26:37;;;;;;;14.23;9.93;;;10.80;88.40;;;;;;5106415;28;20055;-71
2023/03/19 03:29:06;;;;;;;12.23;8.88;;;10.80;88.40;;;;;;5093568;28;20039;-70
2023/03/19 03:31:32;;;;;;;14.23;9.40;;;10.80;88.40;;;;;;5101280;28;20027;-71
2023/03/19 03:34:01;;;;;;;13.90;10.00;;;10.80;88.40;;;;;;5095053;28;20489;-70
2023/03/19 03:36:27;;;;;;;13.30;9.50;;;10.90;88.50;;;;;;5095889;28;20119;-70
2023/03/19 03:38:53;;;;;;;14.07;9.35;;;10.90;88.60;;;;;;5086593;27;20023;-70
2023/03/19 03:41:19;;;;;;;16.77;9.23;;;10.90;88.50;;;;;;5109079;28;20030;-70
2023/03/19 03:43:45;;;;;;;13.13;9.43;;;10.80;88.50;;;;;;5092992;28;20395;-70
2023/03/19 03:46:11;;;;;;;14.07;9.48;;;10.80;88.60;;;;;;5097325;28;20538;-70
2023/03/19 03:48:36;;;;;;;12.88;9.13;;;10.90;88.80;;;;;;5100182;28;20153;-69
2023/03/19 03:51:03;;;;;;;14.32;9.88;;;10.90;88.80;;;;;;5091997;28;20017;-69
2023/03/19 03:53:29;;;;;;;18.48;10.60;;;11.00;88.90;;;;;;5095873;28;20027;-70
2023/03/19 03:55:55;;;;;;;14.52;9.50;;;10.90;88.70;;;;;;5094519;27;20383;-69
2023/03/19 03:58:20;;;;;;;15.98;9.90;;;11.00;88.80;;;;;;5093946;28;20055;-70
2023/03/19 04:00:47;;;;;;;14.73;9.32;;;11.00;88.70;;;;;;5093355;28;20027;-69
2023/03/19 04:03:13;;;;;;;15.35;10.10;;;10.90;88.70;;;;;;5092693;28;20020;-69
2023/03/19 04:05:39;;;;;;;15.05;10.43;;;11.00;89.30;;;;;;5090017;28;20060;-69
2023/03/19 04:08:05;;;;;;;13.07;10.10;;;11.00;88.90;;;;;;5075645;28;20028;-69
2023/03/19 04:10:34;;;;;;;15.95;10.55;;;11.00;88.90;;;;;;5094321;28;20023;-69
2023/03/19 04:13:00;;;;;;;12.18;9.25;;;11.00;88.90;;;;;;5102494;28;20039;-70
2023/03/19 04:15:26;;;;;;;13.20;9.73;;;11.00;88.90;;;;;;5099528;28;20019;-70
2023/03/19 04:17:51;;;;;;;16.90;10.93;;;11.00;88.80;;;;;;5105627;28;20479;-70
2023/03/19 04:20:17;;;;;;;13.25;9.57;;;11.00;88.70;;;;;;5091776;27;20069;-69
2023/03/19 04:22:44;;;;;;;13.93;10.20;;;11.00;88.60;;;;;;5097867;28;20032;-70
2023/03/19 04:25:10;;;;;;;15.43;10.30;;;11.00;88.60;;;;;;5103825;28;20095;-70
2023/03/19 04:27:36;;;;;;;15.43;10.68;;;11.00;88.70;;;;;;5107655;28;20379;-70
2023/03/19 04:30:02;;;;;;;16.95;10.65;;;11.00;88.70;;;;;;5098707;28;20028;-70
2023/03/19 04:32:28;;;;;;;19.95;11.00;;;11.00;88.70;;;;;;5095358;28;20544;-69
2023/03/19 04:34:54;;;;;;;13.32;9.88;;;11.00;88.60;;;;;;5086728;28;20082;-70
2023/03/19 04:37:19;;;;;;;16.35;10.00;;;11.00;88.50;;;;;;5093685;28;20059;-70
2023/03/19 04:39:46;;;;;;;17.38;10.70;;;11.00;88.50;;;;;;5096283;28;20108;-70
2023/03/19 04:42:12;;;;;;;13.18;9.45;;;11.00;88.50;;;;;;5099356;28;20043;-70
2023/03/19 04:44:37;;;;;;;17.10;10.95;;;11.00;88.50;;;;;;5087251;28;20024;-70
2023/03/19 04:47:03;;;;;;;14.90;10.98;;;11.00;88.50;;;;;;5091679;28;20024;-70
2023/03/19 04:49:30;;;;;;;14.23;9.77;;;11.00;88.40;;;;;;5094566;28;20171;-70
2023/03/19 04:51:56;;;;;;;14.23;10.18;;;11.10;88.40;;;;;;5100408;28;20124;-70
2023/03/19 04:54:23;;;;;;;15.80;11.25;;;11.10;88.30;;;;;;5090225;28;20089;-70
2023/03/19 04:56:49;;;;;;;13.38;10.32;;;11.10;88.30;;;;;;5091890;28;20541;-70
2023/03/19 04:59:15;;;;;;;13.73;10.77;;;11.10;88.60;;;;;;5095822;28;20530;-70
2023/03/19 05:01:40;;;;;;;16.23;11.82;;;11.10;88.70;;;;;;5098032;28;20055;-70
2023/03/19 05:04:07;;;;;;;16.20;10.82;;;11.20;88.90;;;;;;5101621;28;20114;-71
2023/03/19 05:06:33;;;;;;;17.23;11.73;;;11.20;89.00;;;;;;5086477;28;20464;-70
2023/03/19 05:08:59;;;;;;;14.70;11.38;;;11.20;89.20;;;;;;5091273;28;20024;-71
2023/03/19 05:11:25;;;;;;;17.05;11.77;;;11.20;89.80;;;;;;5090148;28;20039;-70
2023/03/19 05:13:51;;;;;;;15.20;11.43;;;11.20;89.50;;;;;;5087098;28;20032;-70
2023/03/19 05:16:17;;;;;;;15.63;11.20;;;11.30;89.80;;;;;;5089519;28;20044;-71
2023/03/19 05:18:42;;;;;;;16.63;11.40;;;11.20;90.00;;;;;;5087939;28;20077;-71
2023/03/19 05:21:11;;;;;;;15.93;11.18;;;11.20;90.10;;;;;;5100082;28;20031;-70
2023/03/19 05:23:37;;;;;;;15.98;12.23;;;11.20;90.40;;;;;;5099581;28;20483;-71
2023/03/19 05:26:03;;;;;;;17.40;12.68;;;11.20;90.60;;;;;;5082525;28;20329;-69
2023/03/19 05:28:29;;;;;;;17.30;11.68;;;11.20;90.90;;;;;;5090518;28;20085;-69
2023/03/19 05:30:55;;;;;;;19.50;12.35;;;11.10;91.10;;;;;;5096296;28;20031;-70
2023/03/19 05:33:21;;;;;;;17.52;13.02;;;11.00;91.50;;;;;;5099409;28;20088;-70
2023/03/19 05:35:47;;;;;;;19.63;13.73;;;10.80;91.60;;;;;;5095014;28;20024;-70
2023/03/19 05:38:13;;;;;;;19.65;14.00;;;10.70;91.80;;;;;;5093270;28;20053;-70
2023/03/19 05:40:41;;;;;;;16.77;12.70;;;10.70;92.00;;;;;;5086819;28;20035;-71
2023/03/19 05:43:08;;;;;;;17.33;13.15;;;10.60;92.50;;;;;;5098312;28;20266;-71
2023/03/19 05:45:34;;;;;;;16.55;11.75;;;10.60;92.80;;;;;;5090945;28;20032;-70
2023/03/19 05:48:00;;;;;;;16.38;11.82;;;10.60;93.10;;;;;;5085906;28;20060;-69
2023/03/19 05:50:26;;;;;;;17.27;11.35;;;10.50;94.20;;;;;;5097654;28;20031;-69
2023/03/19 05:52:52;;;;;;;19.60;11.02;;;10.50;94.40;;;;;;5096044;28;20035;-70
2023/03/19 05:55:17;;;;;;;14.13;10.40;;;10.50;94.50;;;;;;5095661;28;20024;-70
2023/03/19 05:57:43;;;;;;;15.55;11.52;;;10.60;94.70;;;;;;5091409;28;20075;-71
2023/03/19 06:00:10;;;;;;;16.90;11.32;;;10.60;95.00;;;;;;5099785;28;20540;-70
2023/03/19 06:02:36;;;;;;;17.35;11.30;;;10.60;95.30;;;;;;5088275;28;20024;-72
2023/03/19 06:05:02;;;;;;;14.48;11.43;;;10.70;95.50;;;;;;5090533;28;20376;-72
2023/03/19 06:07:28;;;;;;;17.67;12.68;;;10.70;95.80;;;;;;5081956;28;20052;-72
2023/03/19 06:09:54;;;;;;;18.17;12.20;;;10.80;96.00;;;;;;5091628;28;20067;-73
2023/03/19 06:12:20;;;;;;;15.48;12.18;;;10.70;96.10;;;;;;5086710;28;20028;-71
2023/03/19 06:14:46;;;;;;;18.20;13.55;;;10.80;96.40;;;;;;5091657;28;20357;-69
2023/03/19 06:17:12;;;;;;;17.70;12.95;;;10.80;96.60;;;;;;5087873;28;20059;-69
2023/03/19 06:19:38;;;;;;;17.60;12.93;;;10.80;96.70;;;;;;5097384;28;20024;-69
2023/03/19 06:22:04;;;;;;;18.08;12.43;;;10.80;96.80;;;;;;5088155;28;20304;-72
2023/03/19 06:24:29;;;;;;;18.30;12.68;;;10.80;96.90;;;;;;5095452;28;20398;-67
2023/03/19 06:26:55;;;;;;;16.65;11.73;;;10.90;97.10;;;;;;5092704;28;20032;-69
2023/03/19 06:29:21;;;;;;;18.90;12.75;;;10.90;97.10;;;;;;5088188;28;20483;-69
2023/03/19 06:31:47;;;;;;;16.75;12.02;;;10.90;97.10;;;;;;5089393;28;20042;-69
2023/03/19 06:34:12;;;;;;;17.35;11.60;;;11.00;97.00;;;;;;5094259;28;20375;-70
2023/03/19 06:36:38;;;;;;;16.83;12.02;;;10.90;96.80;;;;;;5094135;28;20040;-69
2023/03/19 06:39:04;;;;;;;17.05;11.80;;;10.90;96.80;;;;;;5096688;28;20059;-69
2023/03/19 06:41:30;;;;;;;16.55;12.20;;;10.90;96.80;;;;;;5093362;28;20394;-69
2023/03/19 06:43:55;;;;;;;20.50;12.27;;;10.90;96.80;;;;;;5095129;28;20034;-69
2023/03/19 06:46:22;;;;;;;16.25;11.68;;;11.00;96.80;;;;;;5096031;27;20020;-69
2023/03/19 06:48:47;;;;;;;15.73;11.50;;;11.00;97.00;;;;;;5100732;27;20407;-69
2023/03/19 06:51:13;;;;;;;18.95;12.77;;;11.00;96.80;;;;;;5092473;28;20050;-69
2023/03/19 06:53:38;;;;;;;17.20;11.32;;;11.10;96.90;;;;;;5105414;28;20034;-69
2023/03/19 06:56:04;;;;;;;16.38;12.00;;;11.10;97.00;;;;;;5104802;28;20441;-70
2023/03/19 06:58:30;;;;;;;16.27;12.13;;;11.20;97.20;;;;;;5107013;27;20078;-70
2023/03/19 07:00:56;;;;;;;17.75;11.63;;;11.20;97.20;;;;;;5102317;28;20491;-70
2023/03/19 07:03:21;;;;;;;15.63;11.93;;;11.30;97.20;;;;;;5084394;28;20431;-69
2023/03/19 07:05:50;;;;;;;15.68;11.25;;;11.30;97.10;;;;;;5090808;28;20729;-70
2023/03/19 07:08:16;;;;;;;16.23;12.40;;;11.40;97.10;;;;;;5096948;28;20032;-70
2023/03/19 07:10:42;;;;;;;19.27;11.52;;;11.40;96.90;;;;;;5098653;28;20290;-69
2023/03/19 07:13:07;;;;;;;16.77;12.18;;;11.40;96.70;;;;;;5092915;28;20437;-70
2023/03/19 07:15:33;;;;;;;17.33;11.57;;;11.50;96.60;;;;;;5114659;28;20389;-70
2023/03/19 07:17:59;;;;;;;17.83;13.10;;;11.50;96.50;;;;;;5094115;28;20028;-70
2023/03/19 07:20:28;;;;;;;19.25;12.93;;;11.50;96.40;;;;;;5090437;28;20066;-70
2023/03/19 07:22:53;;;;;;;16.15;11.77;;;11.60;96.50;;;;;;5105051;28;20027;-70
2023/03/19 07:25:19;;;;;;;16.90;12.45;;;11.60;96.50;;;;;;5091612;28;20032;-70
2023/03/19 07:27:45;;;;;;;16.63;11.90;;;11.60;96.60;;;;;;5092863;28;20027;-70
2023/03/19 07:30:12;;;;;;;16.83;12.82;;;11.60;96.60;;;;;;5103694;28;20023;-70
2023/03/19 07:32:38;;;;;;;19.42;12.88;;;11.70;96.60;;;;;;5071755;28;20029;-70
2023/03/19 07:35:06;;;;;;;17.55;12.70;;;11.70;96.50;;;;;;5090293;28;20089;-69
2023/03/19 07:37:32;;;;;;;15.98;12.38;;;11.70;96.30;;;;;;5096933;28;20036;-70
2023/03/19 07:39:58;;;;;;;17.05;12.07;;;11.70;96.30;;;;;;5073375;28;20043;-69
2023/03/19 07:42:23;;;;;;;19.45;13.15;;;11.70;96.30;;;;;;5104487;28;20029;-70
2023/03/19 07:44:49;;;;;;;22.13;14.88;;;11.70;96.40;;;;;;5085527;28;20027;-69
2023/03/19 07:47:15;;;;;;;16.75;12.57;;;11.80;96.60;;;;;;5103003;28;20495;-69
2023/03/19 07:49:40;;;;;;;19.40;12.73;;;11.80;96.50;;;;;;5089961;28;20024;-70
2023/03/19 07:52:06;;;;;;;15.68;13.15;;;11.90;96.60;;;;;;5084877;28;20126;-70
2023/03/19 07:54:32;;;;;;;18.08;12.90;;;12.00;96.60;;;;;;5094964;28;20061;-69
2023/03/19 07:56:57;;;;;;;16.08;12.18;;;12.00;96.70;;;;;;5086450;28;20652;-69
2023/03/19 07:59:23;;;;;;;18.05;12.00;;;12.10;96.70;;;;;;5101067;28;20043;-70
2023/03/19 08:01:49;;;;;;;16.45;12.40;;;12.30;96.90;;;;;;5102166;28;20056;-71
2023/03/19 08:04:15;;;;;;;14.82;11.20;;;12.40;96.90;;;;;;5107711;28;20038;-70
2023/03/19 08:06:41;;;;;;;14.25;11.60;;;12.50;96.80;;;;;;5091571;28;20038;-69
2023/03/19 08:09:06;;;;;;;16.40;12.27;;;12.60;96.80;;;;;;5098779;28;20015;-69
2023/03/19 08:11:32;;;;;;;17.33;11.77;;;12.70;96.80;;;;;;5091355;28;20030;-70
2023/03/19 08:13:58;;;;;;;15.05;11.90;;;12.80;96.60;;;;;;5093596;28;20096;-70
2023/03/19 08:16:23;;;;;;;15.02;11.23;;;12.80;96.40;;;;;;5095688;28;20126;-69
2023/03/19 08:18:50;;;;;;;13.57;11.35;;;12.90;96.40;;;;;;5070911;28;20526;-69
2023/03/19 08:21:16;;;;;;;16.60;10.88;;;13.00;96.30;;;;;;5081606;28;20150;-68
2023/03/19 08:23:42;;;;;;;13.88;11.00;;;13.00;96.30;;;;;;5105622;28;20025;-70
2023/03/19 08:26:07;;;;;;;14.40;10.45;;;13.10;96.20;;;;;;5091246;28;21490;-70
2023/03/19 08:28:34;;;;;;;13.43;10.40;;;13.20;96.30;;;;;;5086393;28;20475;-70
2023/03/19 08:31:13;;;;;;;13.98;10.52;;;13.20;96.20;;;;;;5098825;28;20193;-70
2023/03/19 08:33:40;;;;;;;12.52;9.68;;;13.30;96.20;;;;;;5090796;28;20061;-71
2023/03/19 08:36:10;;;;;;;13.15;9.77;;;13.40;96.10;;;;;;5096643;28;20036;-70
2023/03/19 08:38:36;;;;;;;13.55;10.23;;;13.40;96.00;;;;;;5092177;28;20038;-71
2023/03/19 08:41:03;;;;;;;15.38;10.00;;;13.40;96.10;;;;;;5089710;28;20158;-71
2023/03/19 08:43:33;;;;;;;14.60;10.40;;;13.30;96.00;;;;;;5091087;28;20032;-72
2023/03/19 08:45:59;;;;;;;15.25;10.75;;;13.40;96.30;;;;;;5098247;28;20026;-72
2023/03/19 08:48:26;;;;;;;14.82;10.60;;;13.30;96.40;;;;;;5104463;28;20023;-72
2023/03/19 08:50:57;;;;;;;14.18;10.40;;;13.30;96.70;;;;;;5100776;28;20110;-72
2023/03/19 08:53:23;;;;;;;15.07;10.95;;;13.30;97.00;;;;;;5094596;28;20497;-72
2023/03/19 08:55:57;;;;;;;16.35;11.13;;;13.20;97.10;;;;;;5102938;28;20564;-72
2023/03/19 08:58:23;;;;;;;13.20;10.18;;;13.00;97.30;;;;;;5096015;28;20047;-73
2023/03/19 09:00:49;;;;;;;14.55;10.90;;;13.00;97.30;;;;;;5096627;28;20039;-73
2023/03/19 09:03:20;;;;;;;15.52;11.45;;;12.90;97.60;;;;;;5100236;28;20019;-74
2023/03/19 09:05:46;;;;;;;14.77;11.27;;;12.80;97.80;;;;;;5101912;28;20123;-72
2023/03/19 09:08:12;;;;;;;14.85;11.38;;;12.70;97.90;;;;;;5099447;28;20422;-73
2023/03/19 09:10:38;;;;;;;16.27;11.65;;;12.70;98.00;;;;;;5097393;28;20174;-73
2023/03/19 09:13:04;;;;;;;14.93;11.88;;;12.60;98.10;;;;;;5102886;28;20047;-73
2023/03/19 09:15:30;;;;;;;16.17;12.07;;;12.50;98.30;;;;;;5094927;28;20101;-74
2023/03/19 09:17:56;;;;;;;15.55;11.88;;;12.30;98.40;;;;;;5086684;28;20032;-75
2023/03/19 09:20:21;;;;;;;15.52;10.85;;;12.20;98.50;;;;;;5101039;28;20173;-74
2023/03/19 09:22:47;;;;;;;15.80;12.02;;;12.10;98.80;;;;;;5100110;28;20031;-74
2023/03/19 09:25:13;;;;;;;14.30;10.88;;;12.10;98.90;;;;;;5089063;28;20569;-74
2023/03/19 09:27:39;;;;;;;17.35;11.30;;;12.00;99.10;;;;;;5093355;28;20536;-74
2023/03/19 09:30:05;;;;;;;15.15;11.35;;;12.00;99.30;;;;;;5099190;28;20505;-74
2023/03/19 09:32:30;;;;;;;13.80;10.50;;;12.00;99.50;;;;;;5081453;28;20154;-74
2023/03/19 09:34:56;;;;;;;14.70;10.88;;;12.00;99.70;;;;;;5093026;28;20115;-74
2023/03/19 09:37:22;;;;;;;17.00;12.10;;;12.00;99.80;;;;;;5095305;28;20043;-73
2023/03/19 09:39:47;;;;;;;15.23;12.18;;;11.90;99.90;;;;;;5103807;28;20016;-73
2023/03/19 09:42:44;;;;;;;14.90;11.25;;;12.00;99.90;;;;;;5091427;28;20088;-74
2023/03/19 09:45:18;;;;;;;15.63;11.60;;;12.00;99.90;;;;;;5098550;28;20511;-74
2023/03/19 09:47:48;;;;;;;17.23;11.90;;;12.10;99.90;;;;;;5086754;28;20322;-74
2023/03/19 09:50:17;;;;;;;15.93;11.77;;;12.10;99.90;;;;;;5103252;28;20502;-74
2023/03/19 09:52:56;;;;;;;14.90;11.00;;;12.20;99.90;;;;;;5093104;28;20429;-73
2023/03/19 09:55:36;;;;;;;23.02;12.95;;;12.20;99.90;;;;;;5093317;28;20032;-72
2023/03/19 09:58:17;;;;;;;14.10;11.32;;;12.30;99.90;;;;;;5086333;28;20087;-72
2023/03/19 10:00:48;;;;;;;14.35;10.60;;;12.30;99.90;;;;;;5086955;28;20028;-72
2023/03/19 10:03:25;;;;;;;15.77;11.18;;;12.30;99.90;;;;;;5103983;28;20107;-72
2023/03/19 10:06:12;;;;;;;14.63;11.05;;;12.40;99.90;;;;;;5102115;28;20092;-71
2023/03/19 10:08:59;;;;;;;12.20;10.18;;;12.40;99.90;;;;;;5104344;28;20023;-73
2023/03/19 10:11:28;;;;;;;14.88;10.93;;;12.50;99.90;;;;;;5094806;28;20028;-72
2023/03/19 10:14:22;;;;;;;15.20;10.27;;;12.60;99.90;;;;;;5091975;28;20043;-70
2023/03/19 10:16:51;;;;;;;15.70;10.77;;;12.60;99.90;;;;;;5075230;28;20138;-70
2023/03/19 10:19:23;;;;;;;16.58;11.25;;;12.80;99.90;;;;;;5097734;28;20111;-73
2023/03/19 10:21:58;;;;;;;15.10;11.27;;;12.90;99.90;;;;;;5100408;28;20051;-73
2023/03/19 10:24:36;;;;;;;13.70;10.18;;;13.00;99.90;;;;;;5101218;28;20032;-73
2023/03/19 10:27:19;;;;;;;13.10;10.80;;;13.10;99.90;;;;;;5100367;28;20027;-74
2023/03/19 10:29:45;;;;;;;14.95;11.13;;;13.20;99.90;;;;;;5082919;28;20035;-73
2023/03/19 10:32:19;;;;;;;13.55;10.25;;;13.30;99.90;;;;;;5093187;28;20395;-74
2023/03/19 10:34:49;;;;;;;13.90;10.40;;;13.40;99.90;;;;;;5106798;28;20024;-75
2023/03/19 10:37:24;;;;;;;12.13;10.07;;;13.50;99.90;;;;;;5093862;28;20072;-74
2023/03/19 10:39:51;;;;;;;11.35;9.30;;;13.50;99.90;;;;;;5102918;28;20035;-74
2023/03/19 10:42:48;;;;;;;11.57;8.98;;;13.60;99.90;;;;;;5096361;28;20054;-74
2023/03/19 10:45:22;;;;;;;11.45;9.70;;;13.70;99.90;;;;;;5099529;28;20019;-74
2023/03/19 10:47:48;;;;;;;11.73;9.02;;;13.70;99.90;;;;;;5087987;28;20024;-74
2023/03/19 10:50:22;;;;;;;12.32;9.95;;;13.80;99.90;;;;;;5090861;28;20027;-74
2023/03/19 10:52:57;;;;;;;13.50;10.27;;;13.80;99.90;;;;;;5083313;28;20055;-74
2023/03/19 10:55:25;;;;;;;13.30;8.77;;;13.90;99.90;;;;;;5085639;28;20032;-73
2023/03/19 10:58:05;;;;;;;11.30;9.63;;;13.90;99.90;;;;;;5092628;28;20043;-74
2023/03/19 11:00:34;;;;;;;11.27;9.10;;;14.00;99.90;;;;;;5091892;28;20479;-74
2023/03/19 11:03:03;;;;;;;9.88;8.23;;;14.10;99.90;;;;;;5098385;28;20031;-74
2023/03/19 11:05:31;;;;;;;12.68;7.97;;;14.20;99.90;;;;;;5091683;28;20032;-75
2023/03/19 11:08:05;;;;;;;12.20;8.82;;;14.20;99.90;;;;;;5095314;28;20019;-75
2023/03/19 11:10:34;;;;;;;;;;;14.30;99.90;;;;;;5104008;28;20052;-74
2023/03/19 11:13:19;;;;;;;10.18;8.50;;;14.40;99.90;;;;;;5086791;28;20008;-74
2023/03/19 11:15:47;;;;;;;9.80;8.18;;;14.40;99.90;;;;;;5104181;27;20028;-74
2023/03/19 11:18:27;;;;;;;11.23;8.63;;;14.50;99.90;;;;;;5086601;28;20409;-74
2023/03/19 11:21:04;;;;;;;11.32;8.02;;;14.60;99.90;;;;;;5083846;28;20032;-74
2023/03/19 11:23:36;;;;;;;11.05;7.97;;;14.70;99.90;;;;;;5079518;28;20023;-74
2023/03/19 11:26:03;;;;;;;8.70;7.43;;;14.80;99.90;;;;;;5083572;28;20051;-69
2023/03/19 11:28:32;;;;;;;10.43;7.53;;;14.90;99.90;;;;;;5090600;28;20032;-67
2023/03/19 11:31:10;;;;;;;9.90;7.72;;;14.90;99.90;;;;;;5092513;28;20016;-66
2023/03/19 11:33:53;;;;;;;11.10;7.53;;;15.10;99.90;;;;;;5092161;28;20475;-66
2023/03/19 11:36:40;;;;;;;8.80;6.88;;;15.20;99.90;;;;;;5092437;28;20032;-67
2023/03/19 11:39:27;;;;;;;10.07;7.13;;;15.30;99.90;;;;;;5100186;28;20077;-67
2023/03/19 11:42:17;;;;;;;10.68;7.47;;;15.40;99.90;;;;;;5087323;28;20032;-68
2023/03/19 11:45:04;;;;;;;8.57;6.63;;;15.40;99.90;;;;;;5085344;28;20055;-67
2023/03/19 11:47:51;;;;;;;10.20;7.72;;;15.50;99.90;;;;;;5056347;28;20066;-66
2023/03/19 11:50:44;;;;;;;9.07;7.75;;;15.50;99.50;;;;;;5095716;28;20494;-67
2023/03/19 11:53:23;;;;;;;9.02;7.13;;;15.60;99.50;;;;;;5110427;28;20142;-67
2023/03/19 11:56:20;;;;;;;9.38;7.20;;;15.60;99.30;;;;;;5101665;28;20027;-67
2023/03/19 11:59:16;;;;;;;8.73;7.18;;;15.60;99.40;;;;;;5092659;28;20143;-67
2023/03/19 12:02:17;;;;;;;8.63;7.18;;;15.70;99.40;;;;;;5044012;28;20032;-66
2023/03/19 12:05:08;;;;;;;9.05;7.40;;;15.70;99.20;;;;;;5071052;28;20066;-68
2023/03/19 12:07:45;;;;;;;10.95;7.22;;;15.80;99.10;;;;;;5089451;28;20067;-68
2023/03/19 12:10:39;;;;;;;10.93;6.70;;;15.80;99.20;;;;;;5097738;28;20032;-68
2023/03/19 12:13:27;;;;;;;9.45;6.78;;;15.80;99.00;;;;;;5105091;28;20039;-67
2023/03/19 12:16:12;;;;;;;12.60;7.80;;;15.90;99.00;;;;;;5094970;28;20160;-68
2023/03/19 12:18:40;;;;;;;8.55;7.43;;;15.90;98.80;;;;;;5091358;28;20137;-68
2023/03/19 12:21:15;;;;;;;9.90;8.05;;;15.90;98.60;;;;;;5106106;28;20043;-69
2023/03/19 12:23:50;;;;;;;;;;;16.00;98.60;;;;;;5088607;28;20510;-69
2023/03/19 12:26:18;;;;;;;10.15;7.43;;;16.00;98.70;;;;;;5089258;28;19916;-68
2023/03/19 12:29:03;;;;;;;8.25;7.22;;;16.00;98.70;;;;;;5086498;28;20039;-68
2023/03/19 12:32:04;;;;;;;9.43;7.10;;;16.00;98.40;;;;;;5089760;28;20035;-68
2023/03/19 12:34:34;;;;;;;9.13;7.25;;;16.10;98.20;;;;;;5095875;28;20035;-68
2023/03/19 12:37:31;;;;;;;8.32;6.50;;;16.10;98.30;;;;;;5091342;28;20043;-68
2023/03/19 12:40:13;;;;;;;9.93;7.68;;;16.20;98.30;;;;;;5095510;28;20040;-68
2023/03/19 12:42:40;;;;;;;10.88;7.78;;;16.20;98.20;;;;;;5090218;28;20505;-69
2023/03/19 12:45:40;;;;;;;10.90;7.72;;;16.30;98.10;;;;;;5083158;28;20033;-69